This is the latest recevied weather packets stored in our database for station/object DK8HC-WX. If no packets are shown the sender has not sent any weather packets the latest 10 day(s).
| Time | Temp. | Humidity | Pressure | Rain* | Wind** | Luminosity | Snow |
|---|---|---|---|---|---|---|---|
| 1777906909 | 30.56° C | 43% | 1014.3 hPa | - | - | - | - |
| 1777906309 | 29.44° C | 44% | 1014.2 hPa | - | - | - | - |
| 1777905709 | 30.56° C | 46% | 1014.6 hPa | - | - | - | - |
| 1777905109 | 28.33° C | 51% | 1014.7 hPa | - | - | - | - |
| 1777904509 | 28.33° C | 48% | 1014.7 hPa | - | - | - | - |
| 1777903909 | 30° C | 44% | 1014.8 hPa | - | - | - | - |
| 1777903309 | 31.11° C | 44% | 1014.9 hPa | - | - | - | - |
| 1777902709 | 31.11° C | 45% | 1014.9 hPa | - | - | - | - |
| 1777902109 | 28.89° C | 54% | 1014.8 hPa | - | - | - | - |
| 1777901509 | 27.22° C | 56% | 1014.8 hPa | - | - | - | - |
| 1777900909 | 27.22° C | 53% | 1014.9 hPa | - | - | - | - |
| 1777900309 | 28.89° C | 51% | 1015.1 hPa | - | - | - | - |
| 1777899709 | 30.56° C | 53% | 1015.4 hPa | - | - | - | - |
| 1777899109 | 28.89° C | 54% | 1015.1 hPa | - | - | - | - |
| 1777898509 | 26.67° C | 60% | 1014.9 hPa | - | - | - | - |
| 1777897908 | 27.22° C | 60% | 1015 hPa | - | - | - | - |
| 1777897308 | 26.67° C | 65% | 1014.9 hPa | - | - | - | - |
| 1777896709 | 25.56° C | 60% | 1014.8 hPa | - | - | - | - |
| 1777896109 | 27.78° C | 63% | 1015.2 hPa | - | - | - | - |
| 1777895508 | 25° C | 66% | 1015.1 hPa | - | - | - | - |
| 1777894909 | 26.67° C | 60% | 1015.3 hPa | - | - | - | - |
| 1777894309 | 27.22° C | 54% | 1015.4 hPa | - | - | - | - |
| 1777893708 | 29.44° C | 60% | 1015.5 hPa | - | - | - | - |
| 1777893108 | 25.56° C | 69% | 1015.2 hPa | - | - | - | - |
| 1777892508 | 25° C | 68% | 1015.2 hPa | - | - | - | - |
* Rain since midnight (hover to see other rain measurements)
** Current wind speed in m/s (hover to see current wind gust speed)